Time;durP1;ratioP1;P1;durP2;ratioP2;P2;SDS_P1;SDS_P2;PMS_P1;PMS_P2;Temp;Humidity;BMP_temperature;BMP_pressure;BME280_temperature;BME280_humidity;BME280_pressure;Samples;Min_cycle;Max_cycle;Signal;HPM_P1;HPM_P2
2022/04/10 00:04:25;;;;;;;1.00;0.60;;;;;;;19.35;40.42;96463.22;10292690;28;20046;-57
2022/04/10 00:09:44;;;;;;;1.42;0.75;;;;;;;19.34;40.42;96456.22;10291201;28;20055;-56
2022/04/10 00:15:04;;;;;;;1.10;0.60;;;;;;;19.33;40.42;96462.78;10304313;28;20034;-56
2022/04/10 00:20:24;;;;;;;0.88;0.70;;;;;;;19.32;40.41;96464.66;10291433;28;20129;-53
2022/04/10 00:25:44;;;;;;;2.33;0.70;;;;;;;19.30;40.33;96466.91;10290795;28;20058;-56
2022/04/10 00:31:03;;;;;;;0.73;0.55;;;;;;;19.29;40.40;96475.34;10291111;28;20051;-53
2022/04/10 00:36:22;;;;;;;0.85;0.60;;;;;;;19.29;40.29;96476.16;10290345;28;20058;-57
2022/04/10 00:41:42;;;;;;;0.98;0.57;;;;;;;19.27;40.43;96475.69;10290109;28;20053;-55
2022/04/10 00:47:02;;;;;;;0.75;0.60;;;;;;;19.26;40.35;96489.50;10289968;28;20051;-55
2022/04/10 00:52:22;;;;;;;0.93;0.70;;;;;;;19.26;40.26;96484.09;10290458;28;20415;-55
2022/04/10 00:57:45;;;;;;;0.70;0.70;;;;;;;19.24;40.32;96486.34;10275754;28;20059;-55
2022/04/10 01:03:05;;;;;;;0.70;0.70;;;;;;;19.23;40.37;96482.06;10289915;28;20058;-56
2022/04/10 01:08:25;;;;;;;0.70;0.50;;;;;;;19.22;40.33;96485.88;10290121;28;20061;-56
2022/04/10 01:13:45;;;;;;;0.60;0.50;;;;;;;19.20;40.33;96494.31;10275025;28;20058;-55
2022/04/10 01:19:06;;;;;;;0.73;0.60;;;;;;;19.21;40.36;96506.72;10289089;28;20129;-56
2022/04/10 01:24:28;;;;;;;0.75;0.50;;;;;;;19.20;40.36;96509.72;10300007;28;20043;-56
2022/04/10 01:29:47;;;;;;;1.17;0.70;;;;;;;19.17;40.41;96503.88;10275111;28;20047;-57
2022/04/10 01:35:08;;;;;;;1.00;0.60;;;;;;;19.16;40.31;96502.28;10289084;28;20058;-56
2022/04/10 01:40:29;;;;;;;0.75;0.60;;;;;;;19.15;40.26;96503.41;10265003;28;20053;-56
2022/04/10 01:45:49;;;;;;;1.83;0.70;;;;;;;19.13;40.27;96511.06;10277578;28;20081;-56
2022/04/10 01:51:09;;;;;;;0.55;0.50;;;;;;;19.13;40.23;96521.84;10282307;28;20047;-56
2022/04/10 01:56:29;;;;;;;0.88;0.60;;;;;;;19.12;40.32;96514.06;10281383;28;20082;-54
2022/04/10 02:01:50;;;;;;;0.68;0.50;;;;;;;19.10;40.38;96517.09;10282095;28;20097;-56
2022/04/10 02:07:09;;;;;;;0.70;0.50;;;;;;;19.09;40.29;96520.94;10243771;28;20495;-54
2022/04/10 02:12:32;;;;;;;0.65;0.60;;;;;;;19.09;40.25;96520.13;10294355;28;20042;-54
2022/04/10 02:17:52;;;;;;;0.65;0.50;;;;;;;19.08;40.34;96540.16;10308721;28;20047;-54
2022/04/10 02:23:11;;;;;;;0.73;0.50;;;;;;;19.07;40.17;96538.56;10308563;28;20043;-56
2022/04/10 02:28:30;;;;;;;0.65;0.50;;;;;;;19.05;40.22;96538.91;10295034;28;20324;-53
2022/04/10 02:33:51;;;;;;;0.85;0.60;;;;;;;19.05;40.20;96540.78;10294844;28;20061;-57
2022/04/10 02:39:10;;;;;;;0.52;0.43;;;;;;;19.04;40.26;96541.91;10292718;28;20043;-53
2022/04/10 02:44:30;;;;;;;0.45;0.45;;;;;;;19.03;40.22;96546.50;10294442;28;20062;-56
2022/04/10 02:49:50;;;;;;;0.43;0.43;;;;;;;19.02;40.28;96550.34;10293815;28;20050;-55
2022/04/10 02:55:10;;;;;;;0.50;0.47;;;;;;;19.00;40.21;96551.78;10294553;28;20507;-56
2022/04/10 03:00:30;;;;;;;0.93;0.50;;;;;;;18.99;40.28;96542.09;10279361;28;20542;-56
2022/04/10 03:05:49;;;;;;;0.73;0.47;;;;;;;19.00;40.43;96549.88;10294337;28;20513;-55
2022/04/10 03:11:09;;;;;;;0.40;0.40;;;;;;;18.97;40.22;96553.22;10293330;28;20054;-55
2022/04/10 03:16:29;;;;;;;0.57;0.50;;;;;;;18.96;40.22;96557.03;10291917;28;20046;-54
2022/04/10 03:21:49;;;;;;;0.60;0.50;;;;;;;18.95;40.19;96555.44;10291675;28;20054;-56
2022/04/10 03:27:09;;;;;;;0.65;0.40;;;;;;;18.94;40.21;96562.75;10296143;28;20051;-56
2022/04/10 03:32:29;;;;;;;0.77;0.50;;;;;;;18.93;40.16;96568.47;10293052;28;20127;-56
2022/04/10 03:37:48;;;;;;;0.50;0.50;;;;;;;18.92;40.13;96578.50;10277032;28;20054;-54
2022/04/10 03:43:08;;;;;;;0.65;0.30;;;;;;;18.90;40.07;96578.03;10290942;28;20054;-57
2022/04/10 03:48:28;;;;;;;0.57;0.55;;;;;;;18.90;40.36;96598.84;10280834;28;20034;-54
2022/04/10 03:53:48;;;;;;;0.38;0.38;;;;;;;18.88;40.27;96598.38;10277862;28;20082;-56
2022/04/10 03:59:10;;;;;;;0.40;0.40;;;;;;;18.87;40.32;96621.84;10277829;28;20062;-54
2022/04/10 04:04:30;;;;;;;0.50;0.50;;;;;;;18.86;40.13;96631.06;10277304;28;20054;-55
2022/04/10 04:09:50;;;;;;;0.65;0.50;;;;;;;18.86;40.29;96641.09;10290401;28;20066;-55
2022/04/10 04:15:11;;;;;;;0.50;0.50;;;;;;;18.84;40.33;96648.72;10277035;28;20062;-57
2022/04/10 04:20:31;;;;;;;0.60;0.50;;;;;;;18.83;40.13;96652.53;10289635;28;20043;-54
2022/04/10 04:25:52;;;;;;;0.50;0.50;;;;;;;18.82;40.13;96642.81;10276190;28;20059;-56
2022/04/10 04:31:11;;;;;;;0.73;0.50;;;;;;;18.80;40.24;96653.16;10291585;28;20043;-54
2022/04/10 04:36:31;;;;;;;0.45;0.45;;;;;;;18.80;40.14;96661.25;10299499;28;20042;-56
2022/04/10 04:41:51;;;;;;;0.50;0.50;;;;;;;18.80;40.20;96666.66;10290859;28;20050;-54
2022/04/10 04:47:11;;;;;;;0.70;0.50;;;;;;;18.78;40.18;96665.06;10305457;28;20046;-54
2022/04/10 04:52:30;;;;;;;0.75;0.68;;;;;;;18.78;40.03;96661.56;10277184;28;20510;-57
2022/04/10 04:57:50;;;;;;;0.50;0.50;;;;;;;18.78;40.04;96673.16;10277764;28;20058;-54
2022/04/10 05:03:10;;;;;;;0.57;0.47;;;;;;;18.79;40.11;96671.22;10276581;28;20051;-55
2022/04/10 05:08:30;;;;;;;0.30;0.30;;;;;;;18.82;40.16;96675.22;10287408;28;20097;-56
2022/04/10 05:13:50;;;;;;;0.80;0.50;;;;;;;18.85;40.28;96686.16;10275525;28;20109;-55
2022/04/10 05:19:10;;;;;;;0.60;0.47;;;;;;;18.87;40.53;96683.16;10228735;28;20522;-55
2022/04/10 05:24:30;;;;;;;0.68;0.50;;;;;;;18.90;40.55;96690.63;10243380;29;20054;-56
2022/04/10 05:29:51;;;;;;;0.52;0.50;;;;;;;18.91;40.68;96703.75;10236821;29;20549;-55
2022/04/10 05:35:10;;;;;;;0.50;0.50;;;;;;;18.91;40.64;96711.09;10255756;28;20053;-55
2022/04/10 05:40:30;;;;;;;0.43;0.40;;;;;;;18.93;40.79;96719.66;10242031;29;20051;-57
2022/04/10 05:45:51;;;;;;;0.65;0.50;;;;;;;18.94;40.93;96726.66;10250011;29;20563;-57
2022/04/10 05:51:10;;;;;;;0.70;0.50;;;;;;;18.95;41.01;96730.91;8503489;28;10001660;-58
2022/04/10 05:56:30;;;;;;;1.88;0.40;;;;;;;18.95;41.09;96739.81;10210882;29;20044;-55
2022/04/10 06:01:53;;;;;;;1.27;0.50;;;;;;;18.94;41.07;96742.84;10162905;29;20466;-58
2022/04/10 06:07:12;;;;;;;0.50;0.45;;;;;;;18.96;41.12;96746.00;10196678;29;20393;-56
2022/04/10 06:12:34;;;;;;;1.67;0.45;;;;;;;18.98;41.31;96751.88;10165900;29;20059;-57
2022/04/10 06:17:54;;;;;;;0.50;0.50;;;;;;;18.99;41.06;96753.44;10198898;29;20059;-56
2022/04/10 06:23:15;;;;;;;0.38;0.30;;;;;;;19.01;41.10;96751.22;10199457;29;20067;-55
2022/04/10 06:28:37;;;;;;;0.70;0.50;;;;;;;19.04;41.04;96769.50;10197658;29;20056;-58
2022/04/10 06:34:01;;;;;;;0.30;0.30;;;;;;;19.06;41.02;96764.56;10217558;29;20051;-54
2022/04/10 06:39:21;;;;;;;0.30;0.30;;;;;;;19.08;40.95;96770.44;10196776;29;20436;-57
2022/04/10 06:44:43;;;;;;;0.73;0.45;;;;;;;19.12;40.90;96757.88;10184556;29;20396;-57
2022/04/10 06:50:32;;;;;;;0.40;0.40;;;;;;;19.18;41.06;96755.78;10191075;29;20059;-59
2022/04/10 06:55:55;;;;;;;0.55;0.40;;;;;;;19.22;41.05;96755.94;10157345;29;20742;-56
2022/04/10 07:01:15;;;;;;;0.55;0.38;;;;;;;19.27;41.22;96753.09;10158074;29;20119;-54
2022/04/10 07:06:36;;;;;;;0.40;0.40;;;;;;;19.31;40.90;96764.81;10160531;29;20135;-56
2022/04/10 07:11:56;;;;;;;2.67;1.20;;;;;;;19.34;38.84;96769.56;10159882;29;20055;-58
2022/04/10 07:17:25;;;;;;;0.63;0.60;;;;;;;19.38;40.22;96769.72;10183198;29;20337;-54
2022/04/10 07:28:28;;;;;;;1.70;0.90;;;;;;;19.26;39.73;96789.28;10198955;29;20058;-55
2022/04/10 07:33:51;;;;;;;5.07;3.55;;;;;;;19.39;40.24;96788.31;10199382;29;20079;-58
2022/04/10 07:39:33;;;;;;;4.75;3.13;;;;;;;19.48;40.74;96797.19;10200180;29;20048;-57
2022/04/10 07:45:07;;;;;;;5.03;2.67;;;;;;;19.54;40.85;96790.47;10210280;28;20047;-59
2022/04/10 07:50:47;;;;;;;4.15;2.85;;;;;;;19.60;40.93;96798.38;10210529;29;20050;-59
2022/04/10 07:56:09;;;;;;;5.07;4.20;;;;;;;19.66;41.53;96803.31;10196383;29;20063;-58
2022/04/10 08:01:30;;;;;;;4.55;3.20;;;;;;;19.72;41.68;96801.25;10208407;29;20110;-59
2022/04/10 08:06:52;;;;;;;4.47;3.00;;;;;;;19.78;41.89;96813.47;10194170;29;20047;-59
2022/04/10 08:12:12;;;;;;;3.50;3.10;;;;;;;19.86;41.99;96822.66;10209808;29;20043;-57
2022/04/10 08:17:31;;;;;;;3.10;2.80;;;;;;;19.91;42.50;96825.94;10211317;29;20043;-58
2022/04/10 08:22:53;;;;;;;3.58;2.83;;;;;;;19.95;42.28;96820.69;10247965;29;20431;-58
2022/04/10 08:28:13;;;;;;;3.10;2.50;;;;;;;20.00;41.93;96817.00;10199058;29;20071;-57
2022/04/10 08:33:32;;;;;;;2.90;2.60;;;;;;;20.05;41.81;96820.34;10184639;29;20074;-57
2022/04/10 08:38:51;;;;;;;2.70;2.30;;;;;;;20.10;41.68;96813.94;10211757;29;20051;-57
2022/04/10 08:44:12;;;;;;;3.72;2.20;;;;;;;20.15;41.67;96821.88;10219553;29;20047;-55
2022/04/10 08:49:32;;;;;;;2.38;2.17;;;;;;;20.19;41.62;96820.09;10223756;29;20043;-58
2022/04/10 08:54:51;;;;;;;2.20;1.90;;;;;;;20.25;41.39;96823.41;10207974;28;20048;-58
2022/04/10 09:00:11;;;;;;;3.75;2.05;;;;;;;20.29;41.39;96827.03;10198043;29;20051;-56
2022/04/10 09:05:30;;;;;;;2.40;2.13;;;;;;;20.33;41.68;96820.63;10220514;29;20047;-55
2022/04/10 09:11:03;;;;;;;4.55;2.40;;;;;;;20.40;42.02;96822.00;10204833;29;20102;-57
2022/04/10 09:16:23;;;;;;;4.45;2.50;;;;;;;20.48;42.11;96815.75;10189302;29;20059;-56
2022/04/10 09:21:44;;;;;;;2.60;2.30;;;;;;;20.53;42.26;96823.69;10207040;29;20522;-57
2022/04/10 09:27:05;;;;;;;2.75;2.50;;;;;;;20.58;42.34;96855.97;10196990;29;20439;-57
2022/04/10 09:32:47;;;;;;;6.50;2.33;;;;;;;20.61;42.68;96854.53;10203252;29;20043;-54
2022/04/10 09:38:07;;;;;;;3.92;2.70;;;;;;;20.65;42.44;96858.16;10182427;29;20092;-58
2022/04/10 09:43:28;;;;;;;2.75;2.30;;;;;;;20.67;42.27;96856.72;10196061;29;20055;-59
2022/04/10 09:48:47;;;;;;;9.77;2.75;;;;;;;20.69;42.37;96851.75;10219910;29;20476;-56
2022/04/10 09:54:07;;;;;;;3.42;2.47;;;;;;;20.74;42.52;96856.19;10192774;29;20062;-57
2022/04/10 09:59:27;;;;;;;8.10;7.38;;;;;;;20.74;43.40;96851.56;10220370;29;20056;-58
2022/04/10 10:04:47;;;;;;;8.32;3.05;;;;;;;20.68;39.47;96858.31;10221049;29;20049;-57
2022/04/10 10:10:07;;;;;;;3.10;1.80;;;;;;;20.10;33.10;96847.16;10218311;28;20055;-58
2022/04/10 10:15:27;;;;;;;2.05;1.50;;;;;;;19.75;34.86;96874.34;10229174;29;20048;-58
2022/04/10 10:20:47;;;;;;;1.85;1.10;;;;;;;19.72;31.73;96847.19;10209467;29;20058;-58
2022/04/10 10:26:19;;;;;;;2.42;1.40;;;;;;;19.89;36.57;96865.25;10185888;29;20099;-57
2022/04/10 10:31:59;;;;;;;2.38;1.40;;;;;;;20.14;37.41;96852.72;10205840;29;20471;-56
2022/04/10 10:37:30;;;;;;;2.83;1.30;;;;;;;20.32;37.84;96848.78;10214862;29;20048;-58
2022/04/10 10:42:51;;;;;;;3.50;0.90;;;;;;;20.23;30.21;96844.53;10220972;29;20058;-59
2022/04/10 10:48:33;;;;;;;3.60;2.70;;;;;;;19.96;29.39;96833.09;10179724;29;20110;-59
2022/04/10 10:53:55;;;;;;;2.97;2.45;;;;;;;20.05;32.95;96831.16;10211652;29;20051;-59
2022/04/10 10:59:33;;;;;;;3.15;2.05;;;;;;;20.19;32.97;96825.50;10188484;29;20048;-59
2022/04/10 11:04:53;;;;;;;4.50;2.13;;;;;;;20.27;33.62;96821.94;10157854;29;20130;-58
2022/04/10 11:10:12;;;;;;;3.60;2.10;;;;;;;20.35;34.21;96823.00;10171841;29;20048;-59
2022/04/10 11:15:34;;;;;;;2.92;2.08;;;;;;;20.42;34.35;96814.34;10174259;29;20048;-58
2022/04/10 11:20:55;;;;;;;2.67;2.08;;;;;;;20.48;34.50;96815.75;10175238;29;20491;-58
2022/04/10 11:26:22;;;;;;;4.57;2.17;;;;;;;20.50;34.57;96813.50;10191983;29;20071;-57
2022/04/10 11:31:46;;;;;;;1.85;1.30;;;;;;;20.52;32.30;96830.19;10213029;29;20040;-59
2022/04/10 11:37:05;;;;;;;3.38;1.85;;;;;;;20.53;33.80;96823.69;10174144;29;20062;-58
2022/04/10 11:42:25;;;;;;;3.45;1.90;;;;;;;20.54;33.88;96836.88;10157653;29;20052;-59
2022/04/10 11:47:45;;;;;;;3.92;1.75;;;;;;;20.58;33.99;96866.81;10170942;29;20064;-58
2022/04/10 11:53:06;;;;;;;5.50;2.03;;;;;;;20.58;34.34;96885.75;10170530;29;20484;-59
2022/04/10 11:58:27;;;;;;;3.85;2.30;;;;;;;20.60;34.57;96878.13;10173355;29;20060;-59
2022/04/10 12:03:49;;;;;;;3.55;1.95;;;;;;;20.62;35.10;96862.34;10172562;29;20692;-58
2022/04/10 12:09:11;;;;;;;3.65;2.10;;;;;;;20.65;35.34;96858.16;10173009;29;20100;-59
2022/04/10 12:14:30;;;;;;;2.80;1.83;;;;;;;20.64;35.50;96851.16;10173432;29;20052;-59
2022/04/10 12:19:57;;;;;;;2.70;1.75;;;;;;;20.65;35.58;96850.84;10172179;29;20188;-58
2022/04/10 12:25:17;;;;;;;3.22;1.90;;;;;;;20.67;35.78;96853.22;10172680;29;20082;-59
2022/04/10 12:30:38;;;;;;;3.58;1.85;;;;;;;20.67;35.85;96843.19;10171337;29;20052;-59
2022/04/10 12:35:57;;;;;;;4.25;1.75;;;;;;;20.68;35.94;96835.84;10204049;29;20059;-58
2022/04/10 12:41:31;;;;;;;2.67;1.65;;;;;;;20.69;35.92;96840.94;10224362;29;20058;-59
2022/04/10 12:46:50;;;;;;;2.22;1.60;;;;;;;20.69;36.13;96824.69;10211694;29;20107;-59
2022/04/10 12:52:17;;;;;;;3.13;1.60;;;;;;;20.70;36.11;96831.69;10189494;29;20060;-58
2022/04/10 12:57:37;;;;;;;2.90;1.53;;;;;;;20.69;36.20;96826.59;10203035;29;20491;-59
2022/04/10 13:02:59;;;;;;;3.80;1.70;;;;;;;20.70;36.55;96823.56;10202438;28;20052;-60
2022/04/10 13:08:22;;;;;;;3.55;1.58;;;;;;;20.69;36.87;96821.97;10202481;29;20040;-57
2022/04/10 13:14:00;;;;;;;3.65;1.90;;;;;;;20.71;37.52;96814.31;10189323;29;20052;-60
2022/04/10 13:19:20;;;;;;;4.30;1.63;;;;;;;20.71;38.22;96808.91;10198679;29;20052;-59
2022/04/10 13:24:40;;;;;;;3.40;1.40;;;;;;;20.72;38.56;96825.97;10188898;29;20051;-57
2022/04/10 13:30:00;;;;;;;4.57;1.80;;;;;;;20.70;38.63;96818.16;10186874;29;20044;-60
2022/04/10 13:35:20;;;;;;;2.88;1.50;;;;;;;20.72;38.77;96837.56;10188657;29;20048;-59
2022/04/10 13:40:39;;;;;;;4.47;1.55;;;;;;;20.75;38.85;96852.34;10196280;29;20052;-61
2022/04/10 13:45:58;;;;;;;1.95;1.35;;;;;;;20.76;38.51;96858.56;10197686;29;20051;-61
2022/04/10 13:51:22;;;;;;;3.63;1.40;;;;;;;20.74;38.85;96854.28;10195914;29;20052;-61
2022/04/10 13:56:43;;;;;;;4.38;1.88;;;;;;;20.73;39.27;96847.25;10180701;29;20527;-63
2022/04/10 14:02:06;;;;;;;3.63;1.35;;;;;;;20.73;39.62;96841.84;10221221;28;20039;-61
2022/04/10 14:07:25;;;;;;;4.03;1.40;;;;;;;20.77;39.88;96854.75;10212356;29;20110;-61
2022/04/10 14:12:45;;;;;;;2.38;1.50;;;;;;;20.77;39.99;96854.75;10216348;29;20056;-61
2022/04/10 14:18:05;;;;;;;2.92;1.15;;;;;;;20.73;36.61;96854.59;10200191;29;20052;-60
2022/04/10 14:23:24;;;;;;;2.53;1.50;;;;;;;20.72;38.51;96850.31;10216710;29;20492;-61
2022/04/10 14:28:45;;;;;;;3.33;1.20;;;;;;;20.71;39.50;96852.22;10215792;29;20059;-61
2022/04/10 14:34:05;;;;;;;6.18;1.35;;;;;;;20.73;39.55;96870.84;10215720;29;20126;-60
2022/04/10 14:39:25;;;;;;;3.97;1.38;;;;;;;20.71;39.60;96889.34;10215903;29;20063;-61
2022/04/10 14:44:46;;;;;;;2.20;1.17;;;;;;;20.71;39.71;96906.38;10212861;29;20059;-60
2022/04/10 14:50:07;;;;;;;2.33;1.10;;;;;;;20.70;39.85;96917.53;10230730;29;20593;-61
2022/04/10 14:55:28;;;;;;;6.90;1.35;;;;;;;20.69;40.07;96914.03;10194488;29;20510;-61
2022/04/10 15:00:47;;;;;;;3.67;1.20;;;;;;;20.70;40.08;96926.44;10266381;28;20129;-61
2022/04/10 15:06:07;;;;;;;2.28;1.15;;;;;;;20.71;40.09;96921.81;10201908;29;20058;-58
2022/04/10 15:11:26;;;;;;;1.45;1.05;;;;;;;20.72;40.19;96928.84;10239554;29;20483;-59
2022/04/10 15:16:45;;;;;;;5.65;1.20;;;;;;;20.69;40.34;96924.84;10222297;29;20523;-60
2022/04/10 15:22:06;;;;;;;1.70;1.00;;;;;;;20.68;40.42;96942.22;10188046;29;20576;-60
2022/04/10 15:27:25;;;;;;;3.00;1.10;;;;;;;20.68;40.41;96938.69;10206824;29;20503;-60
2022/04/10 15:32:47;;;;;;;4.32;1.08;;;;;;;20.68;40.55;96925.97;10213350;29;20054;-59
2022/04/10 15:38:08;;;;;;;3.15;1.20;;;;;;;20.70;40.76;96920.25;10207709;29;20083;-60
2022/04/10 15:43:29;;;;;;;3.58;1.20;;;;;;;20.68;40.79;96923.28;10212036;29;20071;-61
2022/04/10 15:48:48;;;;;;;5.25;1.20;;;;;;;20.65;40.86;96931.25;10217569;29;20055;-59
2022/04/10 15:54:08;;;;;;;2.83;0.98;;;;;;;20.66;40.92;96928.22;10199813;29;20051;-60
2022/04/10 15:59:27;;;;;;;2.22;1.00;;;;;;;20.67;40.94;96923.59;10208762;29;20055;-59
2022/04/10 16:04:46;;;;;;;1.65;1.00;;;;;;;20.66;40.91;96939.06;10223780;28;20106;-60
2022/04/10 16:10:06;;;;;;;4.50;1.10;;;;;;;20.68;40.97;96930.59;10213097;29;20099;-60
2022/04/10 16:15:26;;;;;;;1.48;0.93;;;;;;;20.69;40.78;96932.97;10213169;29;20111;-60
2022/04/10 16:20:48;;;;;;;1.75;0.90;;;;;;;20.68;40.80;96925.97;10195062;29;20541;-59
2022/04/10 16:26:08;;;;;;;1.20;1.00;;;;;;;20.68;40.77;96936.00;10203066;29;20062;-61
2022/04/10 16:31:27;;;;;;;1.50;1.10;;;;;;;20.66;40.60;96919.28;10222398;29;20044;-60
2022/04/10 16:36:47;;;;;;;2.13;1.05;;;;;;;20.64;39.87;96927.75;10200608;29;20415;-61
2022/04/10 16:42:08;;;;;;;5.47;0.98;;;;;;;20.63;40.03;96925.38;10177160;29;20055;-60
2022/04/10 16:47:28;;;;;;;2.88;0.88;;;;;;;20.62;40.32;96942.72;10247538;28;20051;-60
2022/04/10 16:52:47;;;;;;;1.48;0.77;;;;;;;20.61;40.46;96947.34;10195098;29;20056;-61
2022/04/10 16:58:08;;;;;;;1.90;1.00;;;;;;;20.59;40.33;96940.66;10168335;29;20067;-60
2022/04/10 17:03:28;;;;;;;2.60;0.80;;;;;;;20.57;40.19;96942.91;10180711;29;20051;-60
2022/04/10 17:08:48;;;;;;;22.50;1.40;;;;;;;20.57;40.39;96942.91;10179557;29;20107;-60
2022/04/10 17:14:08;;;;;;;3.70;0.88;;;;;;;20.56;40.47;96947.50;10168081;29;20119;-61
2022/04/10 17:19:27;;;;;;;3.83;0.90;;;;;;;20.54;40.50;96952.44;10207759;29;20111;-61
2022/04/10 17:24:48;;;;;;;2.47;0.80;;;;;;;20.51;40.52;96945.78;10184062;29;20060;-53
2022/04/10 17:30:08;;;;;;;4.40;1.05;;;;;;;20.50;40.85;96955.03;10225589;29;20052;-58
2022/04/10 17:35:27;;;;;;;5.03;0.98;;;;;;;20.48;40.92;96984.34;10230942;28;20051;-60
2022/04/10 17:40:47;;;;;;;3.20;0.98;;;;;;;20.48;40.85;96988.94;10215363;29;20052;-61
2022/04/10 17:46:06;;;;;;;4.68;0.98;;;;;;;20.46;41.13;96991.97;10212608;29;20063;-55
2022/04/10 17:51:27;;;;;;;3.80;1.10;;;;;;;20.44;41.27;96994.19;10206665;29;20050;-55
2022/04/10 17:56:47;;;;;;;2.60;0.93;;;;;;;20.43;41.39;96991.84;10214339;29;20055;-59
2022/04/10 18:02:06;;;;;;;3.15;1.00;;;;;;;20.38;39.64;96986.59;10207241;29;20062;-53
2022/04/10 18:07:27;;;;;;;3.13;0.93;;;;;;;20.37;40.87;97002.06;10218885;29;20481;-54
2022/04/10 18:12:47;;;;;;;1.92;0.95;;;;;;;20.37;40.76;97010.16;10199989;29;20052;-53
2022/04/10 18:18:10;;;;;;;1.70;0.80;;;;;;;20.37;41.02;97017.50;10213717;29;20470;-57
2022/04/10 18:23:30;;;;;;;4.45;1.00;;;;;;;20.35;40.87;97032.13;10210413;29;20117;-57
2022/04/10 18:28:50;;;;;;;3.58;0.98;;;;;;;20.34;40.83;97033.22;10214006;29;20072;-57
2022/04/10 18:34:10;;;;;;;1.20;0.85;;;;;;;20.33;40.96;97031.66;10228736;29;20046;-57
2022/04/10 18:39:29;;;;;;;2.90;1.00;;;;;;;20.33;40.73;97037.06;10228169;29;20074;-57
2022/04/10 18:44:49;;;;;;;1.60;0.70;;;;;;;20.31;40.69;97042.00;10227262;29;20046;-57
2022/04/10 18:50:10;;;;;;;6.32;1.00;;;;;;;20.31;40.80;97052.06;10208275;29;20059;-59
2022/04/10 18:55:30;;;;;;;2.20;0.70;;;;;;;20.30;40.85;97053.16;10214959;29;20439;-57
2022/04/10 19:00:49;;;;;;;4.82;0.80;;;;;;;20.30;40.67;97055.84;10227847;29;20071;-57
2022/04/10 19:06:11;;;;;;;1.13;0.80;;;;;;;20.28;41.10;97072.41;10212780;29;20066;-58
2022/04/10 19:11:31;;;;;;;1.40;0.90;;;;;;;20.27;41.31;97059.22;10205261;29;20044;-56
2022/04/10 19:16:52;;;;;;;1.77;0.95;;;;;;;20.26;41.32;97063.81;10204210;29;20090;-58
2022/04/10 19:22:11;;;;;;;1.75;1.00;;;;;;;20.24;41.25;97055.22;10173881;29;20488;-58
2022/04/10 19:27:31;;;;;;;4.40;1.30;;;;;;;20.24;41.49;97054.44;10173757;29;20061;-58
2022/04/10 19:32:50;;;;;;;1.75;0.90;;;;;;;20.23;41.39;97053.66;10165873;29;20396;-57
2022/04/10 19:38:11;;;;;;;2.25;0.90;;;;;;;20.21;41.37;97046.97;10171176;29;20048;-58
2022/04/10 19:43:31;;;;;;;3.03;0.90;;;;;;;20.20;41.35;97046.19;10186407;29;20048;-58
2022/04/10 19:48:50;;;;;;;2.35;0.80;;;;;;;20.18;41.23;97050.31;10177852;29;20055;-57
2022/04/10 19:54:10;;;;;;;1.60;0.90;;;;;;;20.18;41.15;97066.56;10212822;29;20423;-58
2022/04/10 19:59:29;;;;;;;3.35;1.08;;;;;;;20.14;41.11;97061.78;10199575;29;20048;-58
2022/04/10 20:04:49;;;;;;;2.85;1.30;;;;;;;20.14;41.03;97067.19;10144980;29;20548;-58
2022/04/10 20:10:10;;;;;;;2.72;1.52;;;;;;;20.13;41.14;97070.22;10148251;29;20417;-60
2022/04/10 20:15:30;;;;;;;3.60;1.30;;;;;;;20.12;41.18;97065.94;10172302;29;20060;-58
2022/04/10 20:20:50;;;;;;;1.75;1.10;;;;;;;20.11;41.25;97067.03;10119567;29;20052;-58
2022/04/10 20:26:09;;;;;;;1.63;1.05;;;;;;;20.10;41.38;97062.75;10133335;29;20484;-59
2022/04/10 20:31:29;;;;;;;3.38;1.55;;;;;;;20.08;41.39;97057.66;10168558;29;20110;-58
2022/04/10 20:36:50;;;;;;;2.03;1.10;;;;;;;20.07;41.53;97064.19;10171959;29;20056;-58
2022/04/10 20:42:09;;;;;;;3.03;1.33;;;;;;;20.07;41.29;97060.69;10176127;29;20044;-58
2022/04/10 20:47:30;;;;;;;4.47;1.30;;;;;;;20.06;41.13;97061.81;10165066;29;20060;-56
2022/04/10 20:52:51;;;;;;;2.95;1.60;;;;;;;20.04;40.96;97075.63;10168290;29;20044;-58
2022/04/10 20:58:12;;;;;;;1.63;1.25;;;;;;;20.02;40.67;97079.78;10152101;29;20057;-58
2022/04/10 21:03:32;;;;;;;2.80;1.30;;;;;;;20.01;40.67;97084.38;10153212;29;20063;-58
2022/04/10 21:08:55;;;;;;;2.42;1.30;;;;;;;20.00;40.47;97087.44;10148389;29;20416;-58
2022/04/10 21:14:15;;;;;;;2.92;1.40;;;;;;;19.98;40.40;97095.06;10169759;29;20051;-58
2022/04/10 21:19:35;;;;;;;2.22;1.30;;;;;;;19.98;40.57;97100.47;10140888;29;20107;-57
2022/04/10 21:24:55;;;;;;;2.00;1.50;;;;;;;19.96;40.46;97103.50;10169216;29;20048;-58
2022/04/10 21:30:14;;;;;;;1.98;1.50;;;;;;;19.94;40.44;97103.03;10135354;29;20580;-58
2022/04/10 21:35:34;;;;;;;2.22;1.50;;;;;;;19.92;40.38;97108.75;10161145;29;20544;-58
2022/04/10 21:40:54;;;;;;;2.03;1.40;;;;;;;19.92;40.54;97119.56;10150055;29;20172;-58
2022/04/10 21:46:13;;;;;;;1.30;1.10;;;;;;;19.91;40.57;97122.56;10200232;29;20046;-58
2022/04/10 21:51:32;;;;;;;2.28;1.27;;;;;;;19.90;40.64;97131.81;10136063;29;20412;-57
2022/04/10 21:56:51;;;;;;;1.40;1.13;;;;;;;19.87;40.42;97133.22;10131962;29;20515;-58
2022/04/10 22:02:11;;;;;;;2.22;1.10;;;;;;;19.87;40.45;97137.84;10134198;29;20056;-58
2022/04/10 22:07:31;;;;;;;1.58;1.23;;;;;;;19.84;40.54;97133.88;10192978;29;20108;-58
2022/04/10 22:12:50;;;;;;;2.08;1.40;;;;;;;19.83;40.48;97137.69;10176533;29;20060;-58
2022/04/10 22:18:10;;;;;;;1.92;1.10;;;;;;;19.84;40.53;97149.31;10169815;29;20543;-58
2022/04/10 22:23:30;;;;;;;2.08;1.25;;;;;;;19.81;40.53;97145.31;10216611;29;20067;-58
2022/04/10 22:28:50;;;;;;;2.03;1.17;;;;;;;19.81;40.48;97139.13;10215544;29;20130;-58
2022/04/10 22:34:09;;;;;;;1.63;1.10;;;;;;;19.78;40.48;97143.25;10198402;29;20056;-58
2022/04/10 22:39:28;;;;;;;1.40;1.10;;;;;;;19.77;40.40;97146.28;10162566;29;20055;-58
2022/04/10 22:44:53;;;;;;;2.50;1.02;;;;;;;19.78;40.50;97142.44;10191644;29;20051;-58
2022/04/10 22:50:12;;;;;;;1.75;1.00;;;;;;;19.76;40.50;97150.88;10192282;29;20052;-58
2022/04/10 22:55:33;;;;;;;2.28;1.13;;;;;;;19.74;40.38;97156.59;10197380;29;20054;-58
2022/04/10 23:00:52;;;;;;;1.63;1.10;;;;;;;19.72;40.50;97156.13;10175488;29;20048;-58
2022/04/10 23:06:12;;;;;;;1.02;0.90;;;;;;;19.71;40.45;97149.13;10175967;29;20445;-59
2022/04/10 23:11:32;;;;;;;1.23;0.85;;;;;;;19.70;40.34;97165.66;10187553;29;20492;-58
2022/04/10 23:16:52;;;;;;;1.95;1.20;;;;;;;19.69;40.38;97166.75;10166078;29;20056;-58
2022/04/10 23:22:11;;;;;;;1.35;1.00;;;;;;;19.67;40.38;97164.34;10163661;29;20484;-57
2022/04/10 23:27:32;;;;;;;0.93;0.90;;;;;;;19.66;40.37;97170.06;10194037;29;20068;-58
2022/04/10 23:32:51;;;;;;;1.90;1.10;;;;;;;19.64;40.48;97166.88;10213476;29;20051;-58
2022/04/10 23:38:11;;;;;;;1.10;1.00;;;;;;;19.65;40.30;97173.91;10226661;28;20048;-56
2022/04/10 23:43:31;;;;;;;1.00;0.90;;;;;;;19.62;40.35;97164.50;10233006;28;20139;-58
2022/04/10 23:48:51;;;;;;;1.55;0.90;;;;;;;19.61;40.25;97173.72;10229305;28;20047;-58
2022/04/10 23:54:11;;;;;;;1.10;1.00;;;;;;;19.60;40.38;97169.44;10213175;29;20555;-58
2022/04/10 23:59:31;;;;;;;1.33;1.00;;;;;;;19.59;40.24;97162.44;10213327;29;20052;-56
